sensor_id;sensor_type;location;lat;lon;timestamp;pressure;altitude;pressure_sealevel;temperature;humidity
10348;BME280;5220;43.192;23.284;2023-12-20T00:00:28;97175.78;;;6.13;100.00
10348;BME280;5220;43.192;23.284;2023-12-20T00:02:55;97168.19;;;6.10;100.00
10348;BME280;5220;43.192;23.284;2023-12-20T00:05:22;97165.59;;;6.10;100.00
10348;BME280;5220;43.192;23.284;2023-12-20T00:07:50;97157.34;;;6.03;100.00
10348;BME280;5220;43.192;23.284;2023-12-20T00:10:17;97155.66;;;6.02;100.00
10348;BME280;5220;43.192;23.284;2023-12-20T00:12:44;97163.72;;;5.79;100.00
10348;BME280;5220;43.192;23.284;2023-12-20T00:15:10;97154.59;;;5.89;100.00
10348;BME280;5220;43.192;23.284;2023-12-20T00:17:37;97152.66;;;5.94;100.00
10348;BME280;5220;43.192;23.284;2023-12-20T00:20:06;97152.34;;;5.66;100.00
10348;BME280;5220;43.192;23.284;2023-12-20T00:22:33;97158.88;;;5.73;100.00
10348;BME280;5220;43.192;23.284;2023-12-20T00:25:01;97155.66;;;5.85;100.00
10348;BME280;5220;43.192;23.284;2023-12-20T00:27:27;97154.47;;;5.75;100.00
10348;BME280;5220;43.192;23.284;2023-12-20T00:29:55;97158.72;;;5.76;100.00
10348;BME280;5220;43.192;23.284;2023-12-20T00:32:21;97158.25;;;5.85;100.00
10348;BME280;5220;43.192;23.284;2023-12-20T00:34:48;97150.75;;;5.98;100.00
10348;BME280;5220;43.192;23.284;2023-12-20T00:37:15;97153.56;;;5.93;100.00
10348;BME280;5220;43.192;23.284;2023-12-20T00:39:42;97143.22;;;5.93;100.00
10348;BME280;5220;43.192;23.284;2023-12-20T00:42:10;97139.44;;;5.49;100.00
10348;BME280;5220;43.192;23.284;2023-12-20T00:44:37;97143.03;;;5.29;100.00
10348;BME280;5220;43.192;23.284;2023-12-20T00:47:04;97139.13;;;5.55;100.00
10348;BME280;5220;43.192;23.284;2023-12-20T00:49:30;97136.53;;;5.55;100.00
10348;BME280;5220;43.192;23.284;2023-12-20T00:51:57;97129.66;;;5.55;100.00
10348;BME280;5220;43.192;23.284;2023-12-20T00:54:24;97121.22;;;5.69;100.00
10348;BME280;5220;43.192;23.284;2023-12-20T00:56:51;97112.84;;;5.81;100.00
10348;BME280;5220;43.192;23.284;2023-12-20T00:59:19;97110.72;;;5.89;100.00
10348;BME280;5220;43.192;23.284;2023-12-20T01:01:45;97115.81;;;5.90;100.00
10348;BME280;5220;43.192;23.284;2023-12-20T01:04:12;97098.16;;;5.99;100.00
10348;BME280;5220;43.192;23.284;2023-12-20T01:06:39;97094.84;;;5.97;100.00
10348;BME280;5220;43.192;23.284;2023-12-20T01:09:05;97094.59;;;6.01;100.00
10348;BME280;5220;43.192;23.284;2023-12-20T01:11:32;97099.28;;;6.10;100.00
10348;BME280;5220;43.192;23.284;2023-12-20T01:13:59;97098.84;;;6.02;100.00
10348;BME280;5220;43.192;23.284;2023-12-20T01:16:27;97099.75;;;6.01;100.00
10348;BME280;5220;43.192;23.284;2023-12-20T01:18:53;97086.94;;;6.00;100.00
10348;BME280;5220;43.192;23.284;2023-12-20T01:21:20;97083.78;;;5.94;100.00
10348;BME280;5220;43.192;23.284;2023-12-20T01:23:47;97079.44;;;5.78;100.00
10348;BME280;5220;43.192;23.284;2023-12-20T01:26:14;97077.50;;;5.66;100.00
10348;BME280;5220;43.192;23.284;2023-12-20T01:28:41;97072.03;;;5.72;100.00
10348;BME280;5220;43.192;23.284;2023-12-20T01:31:08;97067.81;;;5.36;100.00
10348;BME280;5220;43.192;23.284;2023-12-20T01:33:36;97058.47;;;5.51;100.00
10348;BME280;5220;43.192;23.284;2023-12-20T01:36:04;97059.63;;;5.46;100.00
10348;BME280;5220;43.192;23.284;2023-12-20T01:38:31;97055.38;;;5.45;100.00
10348;BME280;5220;43.192;23.284;2023-12-20T01:40:57;97049.41;;;4.93;100.00
10348;BME280;5220;43.192;23.284;2023-12-20T01:43:24;97041.81;;;5.24;100.00
10348;BME280;5220;43.192;23.284;2023-12-20T01:45:51;97042.19;;;5.51;100.00
10348;BME280;5220;43.192;23.284;2023-12-20T01:48:19;97040.84;;;5.59;100.00
10348;BME280;5220;43.192;23.284;2023-12-20T01:50:48;97035.38;;;5.65;100.00
10348;BME280;5220;43.192;23.284;2023-12-20T01:53:15;97031.47;;;5.74;100.00
10348;BME280;5220;43.192;23.284;2023-12-20T01:55:42;97025.41;;;5.75;100.00
10348;BME280;5220;43.192;23.284;2023-12-20T01:58:10;97024.59;;;5.41;100.00
10348;BME280;5220;43.192;23.284;2023-12-20T02:00:37;97021.28;;;5.55;100.00
10348;BME280;5220;43.192;23.284;2023-12-20T02:03:04;97016.31;;;5.68;100.00
10348;BME280;5220;43.192;23.284;2023-12-20T02:05:33;97013.53;;;5.55;100.00
10348;BME280;5220;43.192;23.284;2023-12-20T02:08:01;97010.41;;;5.66;100.00
10348;BME280;5220;43.192;23.284;2023-12-20T02:10:28;97010.25;;;5.69;100.00
10348;BME280;5220;43.192;23.284;2023-12-20T02:12:55;97004.81;;;5.73;100.00
10348;BME280;5220;43.192;23.284;2023-12-20T02:15:22;97004.75;;;5.75;100.00
10348;BME280;5220;43.192;23.284;2023-12-20T02:17:49;96997.94;;;5.74;100.00
10348;BME280;5220;43.192;23.284;2023-12-20T02:20:16;96989.13;;;5.45;100.00
10348;BME280;5220;43.192;23.284;2023-12-20T02:22:44;96992.75;;;5.58;100.00
10348;BME280;5220;43.192;23.284;2023-12-20T02:25:11;96989.00;;;5.64;100.00
10348;BME280;5220;43.192;23.284;2023-12-20T02:27:38;96984.59;;;5.66;100.00
10348;BME280;5220;43.192;23.284;2023-12-20T02:30:07;96983.66;;;5.67;100.00
10348;BME280;5220;43.192;23.284;2023-12-20T02:32:34;96974.16;;;5.52;100.00
10348;BME280;5220;43.192;23.284;2023-12-20T02:35:01;96974.94;;;5.54;100.00
10348;BME280;5220;43.192;23.284;2023-12-20T02:37:28;96976.41;;;5.58;100.00
10348;BME280;5220;43.192;23.284;2023-12-20T02:39:56;96973.06;;;5.40;100.00
10348;BME280;5220;43.192;23.284;2023-12-20T02:42:22;96967.84;;;5.41;100.00
10348;BME280;5220;43.192;23.284;2023-12-20T02:44:49;96962.59;;;5.43;100.00
10348;BME280;5220;43.192;23.284;2023-12-20T02:47:16;96969.31;;;5.46;100.00
10348;BME280;5220;43.192;23.284;2023-12-20T02:49:42;96964.81;;;5.33;100.00
10348;BME280;5220;43.192;23.284;2023-12-20T02:52:09;96965.88;;;5.29;100.00
10348;BME280;5220;43.192;23.284;2023-12-20T02:54:36;96962.41;;;5.30;100.00
10348;BME280;5220;43.192;23.284;2023-12-20T02:57:04;96965.34;;;5.07;100.00
10348;BME280;5220;43.192;23.284;2023-12-20T02:59:30;96954.28;;;5.21;100.00
10348;BME280;5220;43.192;23.284;2023-12-20T03:01:57;96947.66;;;5.32;100.00
10348;BME280;5220;43.192;23.284;2023-12-20T03:04:24;96942.94;;;5.40;100.00
10348;BME280;5220;43.192;23.284;2023-12-20T03:06:50;96939.47;;;5.41;100.00
10348;BME280;5220;43.192;23.284;2023-12-20T03:09:17;96941.66;;;5.16;100.00
10348;BME280;5220;43.192;23.284;2023-12-20T03:11:44;96941.25;;;5.24;100.00
10348;BME280;5220;43.192;23.284;2023-12-20T03:14:12;96936.44;;;5.33;100.00
10348;BME280;5220;43.192;23.284;2023-12-20T03:16:38;96938.78;;;5.38;100.00
10348;BME280;5220;43.192;23.284;2023-12-20T03:19:05;96937.94;;;5.37;100.00
10348;BME280;5220;43.192;23.284;2023-12-20T03:21:32;96932.34;;;5.29;100.00
10348;BME280;5220;43.192;23.284;2023-12-20T03:23:58;96931.28;;;5.33;100.00
10348;BME280;5220;43.192;23.284;2023-12-20T03:26:25;96925.28;;;5.33;100.00
10348;BME280;5220;43.192;23.284;2023-12-20T03:28:52;96925.72;;;5.25;100.00
10348;BME280;5220;43.192;23.284;2023-12-20T03:31:20;96923.88;;;5.27;100.00
10348;BME280;5220;43.192;23.284;2023-12-20T03:33:47;96918.66;;;5.29;100.00
10348;BME280;5220;43.192;23.284;2023-12-20T03:36:14;96915.22;;;5.28;100.00
10348;BME280;5220;43.192;23.284;2023-12-20T03:38:40;96914.19;;;5.15;100.00
10348;BME280;5220;43.192;23.284;2023-12-20T03:41:07;96901.72;;;5.23;100.00
10348;BME280;5220;43.192;23.284;2023-12-20T03:43:34;96904.13;;;5.11;100.00
10348;BME280;5220;43.192;23.284;2023-12-20T03:46:00;96896.31;;;5.12;100.00
10348;BME280;5220;43.192;23.284;2023-12-20T03:48:30;96900.78;;;5.09;100.00
10348;BME280;5220;43.192;23.284;2023-12-20T03:50:57;96893.97;;;5.08;100.00
10348;BME280;5220;43.192;23.284;2023-12-20T03:53:23;96893.00;;;5.10;100.00
10348;BME280;5220;43.192;23.284;2023-12-20T03:55:50;96892.00;;;5.13;100.00
10348;BME280;5220;43.192;23.284;2023-12-20T03:58:17;96888.31;;;5.01;100.00
10348;BME280;5220;43.192;23.284;2023-12-20T04:00:43;96887.16;;;5.07;100.00
10348;BME280;5220;43.192;23.284;2023-12-20T04:03:10;96885.06;;;4.98;100.00
10348;BME280;5220;43.192;23.284;2023-12-20T04:05:39;96876.56;;;4.63;100.00
10348;BME280;5220;43.192;23.284;2023-12-20T04:08:07;96875.13;;;4.57;100.00
10348;BME280;5220;43.192;23.284;2023-12-20T04:10:33;96867.94;;;4.79;100.00
10348;BME280;5220;43.192;23.284;2023-12-20T04:13:00;96873.25;;;4.94;100.00
10348;BME280;5220;43.192;23.284;2023-12-20T04:15:27;96868.91;;;4.94;100.00
10348;BME280;5220;43.192;23.284;2023-12-20T04:17:53;96862.50;;;4.85;100.00
10348;BME280;5220;43.192;23.284;2023-12-20T04:20:20;96857.72;;;4.78;100.00
10348;BME280;5220;43.192;23.284;2023-12-20T04:22:48;96857.78;;;4.44;100.00
10348;BME280;5220;43.192;23.284;2023-12-20T04:25:15;96853.78;;;4.71;100.00
10348;BME280;5220;43.192;23.284;2023-12-20T04:27:41;96844.75;;;4.79;100.00
10348;BME280;5220;43.192;23.284;2023-12-20T04:30:08;96847.63;;;4.91;100.00
10348;BME280;5220;43.192;23.284;2023-12-20T04:32:35;96845.72;;;4.94;100.00
10348;BME280;5220;43.192;23.284;2023-12-20T04:35:02;96844.53;;;4.84;100.00
10348;BME280;5220;43.192;23.284;2023-12-20T04:37:29;96845.63;;;4.63;100.00
10348;BME280;5220;43.192;23.284;2023-12-20T04:39:57;96842.13;;;4.48;100.00
10348;BME280;5220;43.192;23.284;2023-12-20T04:42:24;96839.50;;;4.65;100.00
10348;BME280;5220;43.192;23.284;2023-12-20T04:44:50;96833.97;;;4.56;100.00
10348;BME280;5220;43.192;23.284;2023-12-20T04:47:17;96840.44;;;4.47;100.00
10348;BME280;5220;43.192;23.284;2023-12-20T04:49:44;96840.34;;;4.66;100.00
10348;BME280;5220;43.192;23.284;2023-12-20T04:52:10;96834.84;;;4.72;100.00
10348;BME280;5220;43.192;23.284;2023-12-20T04:54:37;96831.66;;;4.84;100.00
10348;BME280;5220;43.192;23.284;2023-12-20T04:57:05;96834.00;;;4.88;100.00
10348;BME280;5220;43.192;23.284;2023-12-20T04:59:32;96844.16;;;4.74;100.00
10348;BME280;5220;43.192;23.284;2023-12-20T05:01:58;96843.16;;;4.77;100.00
10348;BME280;5220;43.192;23.284;2023-12-20T05:04:25;96838.19;;;4.74;100.00
10348;BME280;5220;43.192;23.284;2023-12-20T05:06:52;96829.88;;;4.69;100.00
10348;BME280;5220;43.192;23.284;2023-12-20T05:09:19;96829.81;;;4.53;100.00
10348;BME280;5220;43.192;23.284;2023-12-20T05:11:45;96827.66;;;4.61;100.00
10348;BME280;5220;43.192;23.284;2023-12-20T05:14:13;96824.13;;;4.64;100.00
10348;BME280;5220;43.192;23.284;2023-12-20T05:16:40;96828.44;;;4.63;100.00
10348;BME280;5220;43.192;23.284;2023-12-20T05:19:07;96826.44;;;4.68;100.00
10348;BME280;5220;43.192;23.284;2023-12-20T05:21:33;96815.31;;;4.68;100.00
10348;BME280;5220;43.192;23.284;2023-12-20T05:24:01;96817.16;;;4.66;100.00
10348;BME280;5220;43.192;23.284;2023-12-20T05:26:27;96824.13;;;4.64;100.00
10348;BME280;5220;43.192;23.284;2023-12-20T05:28:55;96826.34;;;4.37;100.00
10348;BME280;5220;43.192;23.284;2023-12-20T05:31:23;96818.78;;;4.51;100.00
10348;BME280;5220;43.192;23.284;2023-12-20T05:33:50;96823.00;;;4.52;100.00
10348;BME280;5220;43.192;23.284;2023-12-20T05:36:18;96819.84;;;4.47;100.00
10348;BME280;5220;43.192;23.284;2023-12-20T05:38:45;96819.53;;;4.53;100.00
10348;BME280;5220;43.192;23.284;2023-12-20T05:41:11;96818.94;;;4.31;100.00
10348;BME280;5220;43.192;23.284;2023-12-20T05:43:38;96818.41;;;4.42;100.00
10348;BME280;5220;43.192;23.284;2023-12-20T05:46:05;96818.41;;;4.42;100.00
10348;BME280;5220;43.192;23.284;2023-12-20T05:48:33;96806.84;;;4.49;100.00
10348;BME280;5220;43.192;23.284;2023-12-20T05:51:00;96813.78;;;4.31;100.00
10348;BME280;5220;43.192;23.284;2023-12-20T05:53:27;96810.91;;;4.37;100.00
10348;BME280;5220;43.192;23.284;2023-12-20T05:55:53;96802.44;;;4.35;100.00
10348;BME280;5220;43.192;23.284;2023-12-20T05:58:20;96803.53;;;4.47;100.00
10348;BME280;5220;43.192;23.284;2023-12-20T06:00:47;96796.72;;;4.46;100.00
10348;BME280;5220;43.192;23.284;2023-12-20T06:03:14;96801.28;;;4.41;100.00
10348;BME280;5220;43.192;23.284;2023-12-20T06:05:42;96789.31;;;4.40;100.00
10348;BME280;5220;43.192;23.284;2023-12-20T06:08:08;96786.03;;;4.53;100.00
10348;BME280;5220;43.192;23.284;2023-12-20T06:10:35;96788.44;;;4.56;100.00
10348;BME280;5220;43.192;23.284;2023-12-20T06:13:02;96778.56;;;4.64;100.00
10348;BME280;5220;43.192;23.284;2023-12-20T06:15:30;96784.41;;;4.68;100.00
10348;BME280;5220;43.192;23.284;2023-12-20T06:17:56;96785.16;;;4.70;100.00
10348;BME280;5220;43.192;23.284;2023-12-20T06:20:23;96788.31;;;4.75;100.00
10348;BME280;5220;43.192;23.284;2023-12-20T06:22:51;96777.03;;;4.77;100.00
10348;BME280;5220;43.192;23.284;2023-12-20T06:25:18;96778.91;;;4.74;100.00
10348;BME280;5220;43.192;23.284;2023-12-20T06:27:44;96791.06;;;4.72;100.00
10348;BME280;5220;43.192;23.284;2023-12-20T06:30:11;96789.09;;;4.27;100.00
10348;BME280;5220;43.192;23.284;2023-12-20T06:32:38;96783.97;;;4.60;100.00
10348;BME280;5220;43.192;23.284;2023-12-20T06:35:06;96789.53;;;4.68;100.00
10348;BME280;5220;43.192;23.284;2023-12-20T06:37:33;96783.34;;;4.72;100.00
10348;BME280;5220;43.192;23.284;2023-12-20T06:40:01;96780.75;;;4.72;100.00
10348;BME280;5220;43.192;23.284;2023-12-20T06:42:27;96791.63;;;4.77;100.00
10348;BME280;5220;43.192;23.284;2023-12-20T06:44:54;96781.44;;;4.75;100.00
10348;BME280;5220;43.192;23.284;2023-12-20T06:47:21;96775.50;;;4.73;100.00
10348;BME280;5220;43.192;23.284;2023-12-20T06:49:47;96766.72;;;4.77;100.00
10348;BME280;5220;43.192;23.284;2023-12-20T06:52:14;96772.28;;;4.70;100.00
10348;BME280;5220;43.192;23.284;2023-12-20T06:54:41;96762.03;;;4.68;100.00
10348;BME280;5220;43.192;23.284;2023-12-20T06:57:09;96768.03;;;4.69;100.00
10348;BME280;5220;43.192;23.284;2023-12-20T06:59:38;96766.28;;;4.37;100.00
10348;BME280;5220;43.192;23.284;2023-12-20T07:02:05;96756.69;;;4.56;100.00
10348;BME280;5220;43.192;23.284;2023-12-20T07:04:32;96756.13;;;4.51;100.00
10348;BME280;5220;43.192;23.284;2023-12-20T07:06:59;96749.91;;;4.70;100.00
10348;BME280;5220;43.192;23.284;2023-12-20T07:09:26;96747.13;;;4.58;100.00
10348;BME280;5220;43.192;23.284;2023-12-20T07:11:52;96751.56;;;4.71;100.00
10348;BME280;5220;43.192;23.284;2023-12-20T07:14:21;96745.09;;;4.80;100.00
10348;BME280;5220;43.192;23.284;2023-12-20T07:16:48;96748.69;;;4.93;100.00
10348;BME280;5220;43.192;23.284;2023-12-20T07:19:14;96750.59;;;5.05;100.00
10348;BME280;5220;43.192;23.284;2023-12-20T07:21:41;96748.00;;;5.21;100.00
10348;BME280;5220;43.192;23.284;2023-12-20T07:24:08;96751.81;;;5.29;100.00
10348;BME280;5220;43.192;23.284;2023-12-20T07:26:35;96738.63;;;5.35;100.00
10348;BME280;5220;43.192;23.284;2023-12-20T07:29:03;96736.66;;;5.39;100.00
10348;BME280;5220;43.192;23.284;2023-12-20T07:31:31;96732.47;;;5.22;100.00
10348;BME280;5220;43.192;23.284;2023-12-20T07:33:57;96735.91;;;5.53;100.00
10348;BME280;5220;43.192;23.284;2023-12-20T07:36:24;96739.28;;;5.69;100.00
10348;BME280;5220;43.192;23.284;2023-12-20T07:38:51;96728.00;;;5.85;100.00
10348;BME280;5220;43.192;23.284;2023-12-20T07:41:17;96723.72;;;6.00;100.00
10348;BME280;5220;43.192;23.284;2023-12-20T07:43:46;96719.59;;;6.12;100.00
10348;BME280;5220;43.192;23.284;2023-12-20T07:46:13;96723.66;;;6.16;100.00
10348;BME280;5220;43.192;23.284;2023-12-20T07:48:41;96710.75;;;6.16;100.00
10348;BME280;5220;43.192;23.284;2023-12-20T07:51:07;96716.94;;;6.13;100.00
10348;BME280;5220;43.192;23.284;2023-12-20T07:53:35;96723.19;;;6.09;100.00
10348;BME280;5220;43.192;23.284;2023-12-20T07:56:12;96711.28;;;6.21;100.00
10348;BME280;5220;43.192;23.284;2023-12-20T07:58:39;96707.13;;;6.32;100.00
10348;BME280;5220;43.192;23.284;2023-12-20T08:01:06;96712.56;;;6.42;100.00
10348;BME280;5220;43.192;23.284;2023-12-20T08:03:33;96707.03;;;6.48;100.00
10348;BME280;5220;43.192;23.284;2023-12-20T08:06:02;96708.53;;;6.52;100.00
10348;BME280;5220;43.192;23.284;2023-12-20T08:08:28;96706.28;;;6.60;100.00
10348;BME280;5220;43.192;23.284;2023-12-20T08:10:55;96708.78;;;6.62;100.00
10348;BME280;5220;43.192;23.284;2023-12-20T08:13:24;96714.03;;;6.74;100.00
10348;BME280;5220;43.192;23.284;2023-12-20T08:15:51;96703.25;;;7.09;100.00
10348;BME280;5220;43.192;23.284;2023-12-20T08:18:18;96694.97;;;7.03;100.00
10348;BME280;5220;43.192;23.284;2023-12-20T08:20:45;96698.72;;;7.12;100.00
10348;BME280;5220;43.192;23.284;2023-12-20T08:23:15;96694.09;;;7.17;100.00
10348;BME280;5220;43.192;23.284;2023-12-20T08:25:42;96693.09;;;7.32;100.00
10348;BME280;5220;43.192;23.284;2023-12-20T08:28:08;96687.69;;;7.49;100.00
10348;BME280;5220;43.192;23.284;2023-12-20T08:30:35;96684.81;;;7.67;100.00
10348;BME280;5220;43.192;23.284;2023-12-20T08:33:02;96677.41;;;7.87;100.00
10348;BME280;5220;43.192;23.284;2023-12-20T08:35:29;96680.59;;;7.91;100.00
10348;BME280;5220;43.192;23.284;2023-12-20T08:37:56;96673.25;;;8.10;100.00
10348;BME280;5220;43.192;23.284;2023-12-20T08:40:25;96669.53;;;8.27;100.00
10348;BME280;5220;43.192;23.284;2023-12-20T08:42:51;96665.19;;;8.15;100.00
10348;BME280;5220;43.192;23.284;2023-12-20T08:45:18;96663.94;;;8.45;100.00
10348;BME280;5220;43.192;23.284;2023-12-20T08:47:45;96666.75;;;8.42;100.00
10348;BME280;5220;43.192;23.284;2023-12-20T08:50:12;96669.94;;;8.58;100.00
10348;BME280;5220;43.192;23.284;2023-12-20T08:52:39;96657.25;;;8.67;100.00
10348;BME280;5220;43.192;23.284;2023-12-20T08:55:06;96656.28;;;8.80;100.00
10348;BME280;5220;43.192;23.284;2023-12-20T08:57:35;96650.63;;;8.99;100.00
10348;BME280;5220;43.192;23.284;2023-12-20T09:00:02;96642.84;;;9.23;100.00
10348;BME280;5220;43.192;23.284;2023-12-20T09:02:29;96645.38;;;9.35;100.00
10348;BME280;5220;43.192;23.284;2023-12-20T09:04:56;96633.47;;;9.44;100.00
10348;BME280;5220;43.192;23.284;2023-12-20T09:07:23;96633.75;;;9.52;100.00
10348;BME280;5220;43.192;23.284;2023-12-20T09:09:49;96620.69;;;9.64;100.00
10348;BME280;5220;43.192;23.284;2023-12-20T09:12:17;96623.31;;;9.76;100.00
10348;BME280;5220;43.192;23.284;2023-12-20T09:14:46;96626.97;;;9.84;100.00
10348;BME280;5220;43.192;23.284;2023-12-20T09:17:13;96603.84;;;9.92;100.00
10348;BME280;5220;43.192;23.284;2023-12-20T09:19:39;96604.22;;;10.10;94.59
10348;BME280;5220;43.192;23.284;2023-12-20T09:22:06;96600.38;;;10.27;90.48
10348;BME280;5220;43.192;23.284;2023-12-20T09:24:33;96595.41;;;10.23;77.44
10348;BME280;5220;43.192;23.284;2023-12-20T09:27:00;96589.91;;;10.60;83.94
10348;BME280;5220;43.192;23.284;2023-12-20T09:29:26;96602.63;;;10.85;82.55
10348;BME280;5220;43.192;23.284;2023-12-20T09:31:55;96580.72;;;10.99;76.73
10348;BME280;5220;43.192;23.284;2023-12-20T09:34:22;96588.81;;;11.16;67.83
10348;BME280;5220;43.192;23.284;2023-12-20T09:36:51;96574.03;;;11.17;63.82
10348;BME280;5220;43.192;23.284;2023-12-20T09:39:19;96579.16;;;11.39;63.12
10348;BME280;5220;43.192;23.284;2023-12-20T09:42:02;96565.78;;;11.53;65.98
10348;BME280;5220;43.192;23.284;2023-12-20T09:44:30;96565.56;;;11.77;61.34
10348;BME280;5220;43.192;23.284;2023-12-20T09:47:02;96563.88;;;11.55;62.33
10348;BME280;5220;43.192;23.284;2023-12-20T09:49:30;96561.88;;;11.79;60.10
10348;BME280;5220;43.192;23.284;2023-12-20T09:51:56;96556.31;;;11.94;58.54
10348;BME280;5220;43.192;23.284;2023-12-20T09:54:23;96556.56;;;11.91;60.09
10348;BME280;5220;43.192;23.284;2023-12-20T09:56:51;96549.59;;;11.91;58.16
10348;BME280;5220;43.192;23.284;2023-12-20T09:59:18;96536.97;;;11.96;57.08
10348;BME280;5220;43.192;23.284;2023-12-20T10:01:45;96530.88;;;12.07;58.02
10348;BME280;5220;43.192;23.284;2023-12-20T10:04:13;96525.25;;;12.11;58.87
10348;BME280;5220;43.192;23.284;2023-12-20T10:06:40;96522.47;;;12.03;59.92
10348;BME280;5220;43.192;23.284;2023-12-20T10:09:07;96515.19;;;11.97;58.27
10348;BME280;5220;43.192;23.284;2023-12-20T10:11:35;96525.72;;;11.96;64.74
10348;BME280;5220;43.192;23.284;2023-12-20T10:14:03;96515.81;;;11.90;60.58
10348;BME280;5220;43.192;23.284;2023-12-20T10:16:30;96511.44;;;11.90;76.58
10348;BME280;5220;43.192;23.284;2023-12-20T10:18:58;96501.84;;;11.91;71.68
10348;BME280;5220;43.192;23.284;2023-12-20T10:21:26;96502.09;;;11.88;69.65
10348;BME280;5220;43.192;23.284;2023-12-20T10:23:54;96503.19;;;11.85;73.83
10348;BME280;5220;43.192;23.284;2023-12-20T10:26:22;96493.03;;;11.82;78.14
10348;BME280;5220;43.192;23.284;2023-12-20T10:28:50;96488.78;;;11.81;78.51
10348;BME280;5220;43.192;23.284;2023-12-20T10:31:28;96477.97;;;11.65;79.11
10348;BME280;5220;43.192;23.284;2023-12-20T10:33:56;96476.53;;;11.72;84.80
10348;BME280;5220;43.192;23.284;2023-12-20T10:36:25;96460.25;;;11.79;83.19
10348;BME280;5220;43.192;23.284;2023-12-20T10:38:53;96464.34;;;11.52;81.70
10348;BME280;5220;43.192;23.284;2023-12-20T10:41:24;96458.28;;;11.72;86.87
10348;BME280;5220;43.192;23.284;2023-12-20T10:43:54;96457.38;;;11.82;85.90
10348;BME280;5220;43.192;23.284;2023-12-20T10:46:21;96449.16;;;11.87;84.16
10348;BME280;5220;43.192;23.284;2023-12-20T10:48:50;96439.84;;;11.64;82.39
10348;BME280;5220;43.192;23.284;2023-12-20T10:51:18;96439.38;;;11.70;78.71
10348;BME280;5220;43.192;23.284;2023-12-20T10:53:47;96449.16;;;11.87;79.56
10348;BME280;5220;43.192;23.284;2023-12-20T10:56:16;96440.72;;;12.04;82.65
10348;BME280;5220;43.192;23.284;2023-12-20T10:58:45;96445.69;;;12.17;72.28
10348;BME280;5220;43.192;23.284;2023-12-20T11:01:13;96426.03;;;12.13;72.79
10348;BME280;5220;43.192;23.284;2023-12-20T11:03:43;96423.47;;;12.22;69.82
10348;BME280;5220;43.192;23.284;2023-12-20T11:06:16;96430.88;;;12.36;83.54
10348;BME280;5220;43.192;23.284;2023-12-20T11:08:51;96426.63;;;12.35;75.45
10348;BME280;5220;43.192;23.284;2023-12-20T11:11:26;96436.91;;;12.37;74.80
10348;BME280;5220;43.192;23.284;2023-12-20T11:13:58;96432.53;;;12.37;77.55
10348;BME280;5220;43.192;23.284;2023-12-20T11:16:27;96425.53;;;12.38;84.08
10348;BME280;5220;43.192;23.284;2023-12-20T11:18:53;96415.66;;;12.32;87.34
10348;BME280;5220;43.192;23.284;2023-12-20T11:21:20;96421.81;;;12.31;85.09
10348;BME280;5220;43.192;23.284;2023-12-20T11:23:48;96411.81;;;12.26;89.58
10348;BME280;5220;43.192;23.284;2023-12-20T11:26:16;96421.00;;;11.81;94.04
10348;BME280;5220;43.192;23.284;2023-12-20T11:28:43;96413.63;;;11.96;93.76
10348;BME280;5220;43.192;23.284;2023-12-20T11:31:14;96403.94;;;11.98;96.50
10348;BME280;5220;43.192;23.284;2023-12-20T11:33:42;96410.34;;;11.94;97.33
10348;BME280;5220;43.192;23.284;2023-12-20T11:36:13;96401.28;;;11.88;95.91
10348;BME280;5220;43.192;23.284;2023-12-20T11:38:54;96383.66;;;11.71;98.41
10348;BME280;5220;43.192;23.284;2023-12-20T11:41:22;96378.97;;;11.65;97.95
10348;BME280;5220;43.192;23.284;2023-12-20T11:43:53;96385.16;;;11.64;97.29
10348;BME280;5220;43.192;23.284;2023-12-20T11:46:20;96381.00;;;11.61;99.64
10348;BME280;5220;43.192;23.284;2023-12-20T11:48:48;96380.16;;;11.51;95.00
10348;BME280;5220;43.192;23.284;2023-12-20T11:51:14;96362.88;;;11.50;97.49
10348;BME280;5220;43.192;23.284;2023-12-20T11:53:41;96354.69;;;11.55;99.35
10348;BME280;5220;43.192;23.284;2023-12-20T11:56:10;96352.75;;;11.57;98.27
10348;BME280;5220;43.192;23.284;2023-12-20T11:58:37;96345.22;;;11.54;94.23
10348;BME280;5220;43.192;23.284;2023-12-20T12:01:04;96343.28;;;11.56;94.54
10348;BME280;5220;43.192;23.284;2023-12-20T12:03:32;96352.34;;;11.61;98.60
10348;BME280;5220;43.192;23.284;2023-12-20T12:05:59;96359.09;;;11.64;99.19
10348;BME280;5220;43.192;23.284;2023-12-20T12:08:26;96352.00;;;11.36;100.00
10348;BME280;5220;43.192;23.284;2023-12-20T12:10:53;96330.50;;;11.43;100.00
10348;BME280;5220;43.192;23.284;2023-12-20T12:13:21;96359.84;;;11.45;99.16
10348;BME280;5220;43.192;23.284;2023-12-20T12:15:48;96346.16;;;11.53;100.00
10348;BME280;5220;43.192;23.284;2023-12-20T12:18:15;96330.81;;;11.59;100.00
10348;BME280;5220;43.192;23.284;2023-12-20T12:20:42;96344.72;;;11.69;100.00
10348;BME280;5220;43.192;23.284;2023-12-20T12:23:09;96327.09;;;11.82;100.00
10348;BME280;5220;43.192;23.284;2023-12-20T12:25:36;96331.31;;;11.93;100.00
10348;BME280;5220;43.192;23.284;2023-12-20T12:28:03;96336.66;;;11.72;100.00
10348;BME280;5220;43.192;23.284;2023-12-20T12:30:31;96309.53;;;11.94;99.81
10348;BME280;5220;43.192;23.284;2023-12-20T12:32:58;96320.25;;;12.10;100.00
10348;BME280;5220;43.192;23.284;2023-12-20T12:35:25;96320.78;;;12.33;100.00
10348;BME280;5220;43.192;23.284;2023-12-20T12:37:51;96318.31;;;12.51;88.99
10348;BME280;5220;43.192;23.284;2023-12-20T12:40:18;96312.38;;;12.68;87.00
10348;BME280;5220;43.192;23.284;2023-12-20T12:42:45;96317.28;;;12.80;79.44
10348;BME280;5220;43.192;23.284;2023-12-20T12:45:13;96309.75;;;12.68;82.69
10348;BME280;5220;43.192;23.284;2023-12-20T12:47:41;96302.50;;;12.52;80.40
10348;BME280;5220;43.192;23.284;2023-12-20T12:50:08;96299.03;;;12.71;79.08
10348;BME280;5220;43.192;23.284;2023-12-20T12:52:35;96295.25;;;12.92;80.47
10348;BME280;5220;43.192;23.284;2023-12-20T12:55:03;96286.72;;;13.10;83.39
10348;BME280;5220;43.192;23.284;2023-12-20T12:57:30;96292.34;;;13.15;80.24
10348;BME280;5220;43.192;23.284;2023-12-20T12:59:56;96295.94;;;13.04;73.29